Time;durP1;ratioP1;P1;durP2;ratioP2;P2;SDS_P1;SDS_P2;PMS_P1;PMS_P2;Temp;Humidity;BMP_temperature;BMP_pressure;BME280_temperature;BME280_humidity;BME280_pressure;Samples;Min_cycle;Max_cycle;Signal;HPM_P1;HPM_P2
2021/08/24 00:00:20;;;;;;;8.63;4.40;;;;;;;15.17;91.47;102939.94;5053303;28;20064;-70
2021/08/24 00:02:48;;;;;;;11.75;4.40;;;;;;;15.19;90.75;102943.47;5060121;28;20059;-70
2021/08/24 00:05:21;;;;;;;9.32;4.20;;;;;;;15.20;90.23;102952.41;5051390;28;20064;-70
2021/08/24 00:07:49;;;;;;;9.80;3.75;;;;;;;15.18;89.80;102943.50;5058201;28;20064;-70
2021/08/24 00:10:17;;;;;;;9.18;4.45;;;;;;;15.23;89.25;102953.25;5054542;28;20446;-70
2021/08/24 00:12:44;;;;;;;11.07;4.45;;;;;;;15.21;88.74;102947.00;5054621;28;20517;-69
2021/08/24 00:15:13;;;;;;;8.35;4.05;;;;;;;15.22;89.00;102942.50;5055425;28;20117;-69
2021/08/24 00:17:42;;;;;;;9.68;4.32;;;;;;;15.18;88.36;102944.38;5053352;28;20157;-69
2021/08/24 00:20:12;;;;;;;11.07;4.07;;;;;;;15.21;88.25;102943.44;5057311;28;20061;-69
2021/08/24 00:22:41;;;;;;;7.95;3.92;;;;;;;15.18;87.90;102939.00;5056103;28;23394;-69
2021/08/24 00:25:13;;;;;;;8.90;3.95;;;;;;;15.15;87.74;102939.03;5057819;28;20091;-69
2021/08/24 00:27:41;;;;;;;6.68;3.58;;;;;;;15.13;87.94;102941.75;5054398;28;20455;-69
2021/08/24 00:30:10;;;;;;;6.88;3.30;;;;;;;15.14;87.39;102945.34;5053704;28;20084;-68
2021/08/24 00:32:37;;;;;;;6.50;3.38;;;;;;;15.13;86.89;102940.88;5056593;28;20059;-69
2021/08/24 00:35:08;;;;;;;6.40;3.28;;;;;;;15.11;86.58;102935.53;5051795;28;20099;-69
2021/08/24 00:37:36;;;;;;;7.78;3.65;;;;;;;15.10;86.06;102936.47;5058256;28;20065;-69
2021/08/24 00:40:06;;;;;;;7.28;3.30;;;;;;;15.06;86.44;102944.59;5054116;28;20456;-69
2021/08/24 00:42:34;;;;;;;7.25;3.30;;;;;;;15.03;85.89;102941.94;5054190;28;20048;-69
2021/08/24 00:45:04;;;;;;;7.10;3.15;;;;;;;15.03;85.80;102936.56;5053945;28;20067;-70
2021/08/24 00:47:37;;;;;;;6.68;3.00;;;;;;;15.00;85.80;102947.38;5054812;28;20096;-70
2021/08/24 00:50:19;;;;;;;5.80;3.00;;;;;;;14.97;85.52;102947.47;5054026;28;20134;-70
2021/08/24 00:52:48;;;;;;;6.05;3.10;;;;;;;14.94;85.21;102951.94;5053503;28;20095;-70
2021/08/24 00:55:18;;;;;;;6.38;3.17;;;;;;;14.93;85.76;102949.28;5055476;28;20065;-70
2021/08/24 00:57:50;;;;;;;7.07;2.92;;;;;;;14.87;85.15;102952.97;5056574;28;20071;-70
2021/08/24 01:00:18;;;;;;;8.48;3.13;;;;;;;14.84;85.82;102950.31;5055610;28;20060;-70
2021/08/24 01:02:46;;;;;;;7.72;3.35;;;;;;;14.83;85.74;102953.94;5054627;28;20131;-67
2021/08/24 01:05:15;;;;;;;7.80;3.20;;;;;;;14.81;85.39;102950.38;5055104;28;20333;-67
2021/08/24 01:07:50;;;;;;;7.30;3.25;;;;;;;14.79;85.63;102949.50;5057949;28;20110;-67
2021/08/24 01:10:23;;;;;;;7.15;3.30;;;;;;;14.80;85.11;102953.09;5053639;28;20122;-67
2021/08/24 01:13:00;;;;;;;6.70;3.13;;;;;;;14.78;85.20;102946.84;5053594;28;20044;-68
2021/08/24 01:15:35;;;;;;;7.63;3.10;;;;;;;14.73;85.20;102958.56;5054729;28;20056;-69
2021/08/24 01:18:10;;;;;;;6.93;3.00;;;;;;;14.73;84.86;102952.31;5053524;28;20068;-67
2021/08/24 01:21:18;;;;;;;7.15;2.97;;;;;;;14.70;84.96;102953.25;5054462;28;20115;-67
2021/08/24 01:23:51;;;;;;;8.20;3.28;;;;;;;14.73;84.59;102955.00;5049200;28;20254;-67
2021/08/24 01:26:29;;;;;;;7.45;3.25;;;;;;;14.69;84.67;102964.91;5052451;28;20122;-67
2021/08/24 01:29:21;;;;;;;6.95;3.17;;;;;;;14.71;84.50;102954.13;5055937;28;20436;-67
2021/08/24 01:32:02;;;;;;;5.55;2.95;;;;;;;14.62;84.78;102970.41;5055052;28;20076;-67
2021/08/24 01:34:51;;;;;;;7.05;3.67;;;;;;;14.56;84.66;102963.28;5056203;28;20459;-67
2021/08/24 01:37:31;;;;;;;6.15;3.67;;;;;;;14.52;85.04;102969.59;5055869;28;20052;-67
2021/08/24 01:40:08;;;;;;;5.72;3.08;;;;;;;14.53;85.09;102968.72;5055384;28;20118;-67
2021/08/24 01:42:37;;;;;;;8.10;3.58;;;;;;;14.50;85.17;102966.94;5050854;28;20350;-67
2021/08/24 01:45:10;;;;;;;5.93;3.08;;;;;;;14.45;85.88;102967.94;5052553;28;20087;-67
2021/08/24 01:47:45;;;;;;;6.50;3.22;;;;;;;14.45;85.46;102968.81;5054492;28;20969;-67
2021/08/24 01:50:18;;;;;;;7.28;3.17;;;;;;;14.39;86.01;102966.22;5051489;28;20060;-67
2021/08/24 01:52:51;;;;;;;5.95;3.53;;;;;;;14.38;85.95;102964.44;5050917;28;20218;-67
2021/08/24 01:55:24;;;;;;;7.88;4.03;;;;;;;14.36;86.21;102975.19;5055134;28;20076;-67
2021/08/24 01:57:56;;;;;;;7.10;3.50;;;;;;;14.31;86.42;102968.13;5059990;28;20068;-67
2021/08/24 02:00:24;;;;;;;7.93;3.50;;;;;;;14.30;86.94;102975.31;5056615;28;20067;-67
2021/08/24 02:02:59;;;;;;;9.70;4.05;;;;;;;14.28;86.94;102971.72;5057742;28;20075;-67
2021/08/24 02:05:31;;;;;;;7.75;3.92;;;;;;;14.30;87.02;102980.69;5059081;28;20077;-67
2021/08/24 02:08:05;;;;;;;10.13;4.10;;;;;;;14.24;87.65;102974.50;5055976;28;20068;-67
2021/08/24 02:10:34;;;;;;;5.95;3.25;;;;;;;14.23;87.93;102973.59;5055031;28;20141;-67
2021/08/24 02:13:04;;;;;;;9.80;3.85;;;;;;;14.15;88.14;102980.88;5053465;28;20064;-67
2021/08/24 02:15:37;;;;;;;8.40;3.85;;;;;;;14.16;88.33;102983.53;5057119;28;20289;-67
2021/08/24 02:18:07;;;;;;;7.78;3.95;;;;;;;14.14;89.02;102985.34;5053305;28;20388;-67
2021/08/24 02:20:40;;;;;;;9.23;4.25;;;;;;;14.15;88.84;102983.56;5056652;28;20057;-67
2021/08/24 02:23:16;;;;;;;8.48;3.42;;;;;;;14.10;89.46;102982.75;5057689;28;20126;-67
2021/08/24 02:25:48;;;;;;;9.10;4.07;;;;;;;14.09;89.59;102989.00;5056307;28;20072;-67
2021/08/24 02:28:21;;;;;;;10.05;4.22;;;;;;;14.10;90.03;102990.78;5058088;28;20150;-67
2021/08/24 02:30:54;;;;;;;10.27;4.20;;;;;;;14.07;90.20;102991.69;5049931;28;20535;-67
2021/08/24 02:33:31;;;;;;;9.77;4.45;;;;;;;14.05;90.29;103001.56;5055862;28;20068;-67
2021/08/24 02:36:02;;;;;;;10.60;4.22;;;;;;;14.02;90.58;102998.94;5057204;28;20331;-67
2021/08/24 02:38:36;;;;;;;11.10;4.25;;;;;;;14.02;90.68;102994.44;5056430;28;20466;-67
2021/08/24 02:41:10;;;;;;;11.23;5.32;;;;;;;14.04;91.13;102997.09;5057419;28;20049;-66
2021/08/24 02:43:45;;;;;;;10.32;4.03;;;;;;;14.00;91.29;102998.94;5055274;28;20110;-67
2021/08/24 02:46:19;;;;;;;9.57;4.50;;;;;;;13.99;91.88;102997.16;5062781;28;20572;-67
2021/08/24 02:48:52;;;;;;;7.90;4.18;;;;;;;14.04;92.05;102997.09;5052688;28;20064;-66
2021/08/24 02:51:21;;;;;;;8.38;4.50;;;;;;;14.09;91.60;102997.06;5058200;28;20123;-67
2021/08/24 02:54:09;;;;;;;12.18;5.40;;;;;;;14.11;91.87;103000.59;5054999;28;20069;-66
2021/08/24 02:56:37;;;;;;;10.48;4.25;;;;;;;14.11;92.19;102993.44;5055658;28;20096;-66
2021/08/24 02:59:04;;;;;;;9.88;4.65;;;;;;;14.08;92.33;102990.81;5059141;28;20064;-66
2021/08/24 03:01:33;;;;;;;11.95;5.18;;;;;;;14.05;92.86;103004.25;5054416;28;20060;-66
2021/08/24 03:04:01;;;;;;;12.20;4.72;;;;;;;14.01;93.48;103000.72;5057233;28;20384;-67
2021/08/24 03:06:31;;;;;;;8.80;4.45;;;;;;;13.98;92.98;102997.19;5053454;28;20443;-67
2021/08/24 03:09:01;;;;;;;10.60;4.72;;;;;;;13.95;93.50;103003.47;5057943;28;20037;-67
2021/08/24 03:11:36;;;;;;;12.60;4.95;;;;;;;13.90;94.21;102999.09;5056175;28;20178;-67
2021/08/24 03:14:07;;;;;;;9.15;4.53;;;;;;;13.86;94.41;102997.31;5054826;28;20068;-66
2021/08/24 03:16:38;;;;;;;10.45;4.68;;;;;;;13.81;95.05;103000.97;5059514;28;20068;-67
2021/08/24 03:19:11;;;;;;;13.18;5.35;;;;;;;13.78;95.32;103002.78;5052677;28;20113;-66
2021/08/24 03:21:41;;;;;;;10.10;5.57;;;;;;;13.72;95.44;103002.84;5057493;28;20388;-67
2021/08/24 03:24:15;;;;;;;9.55;5.05;;;;;;;13.63;95.21;102990.44;5054867;28;20068;-67
2021/08/24 03:26:44;;;;;;;8.88;4.80;;;;;;;13.60;95.81;103001.19;5058215;28;20462;-67
2021/08/24 03:29:15;;;;;;;14.23;6.03;;;;;;;13.55;96.50;102997.66;5054017;28;20056;-67
2021/08/24 03:31:45;;;;;;;11.93;5.75;;;;;;;13.53;97.07;103002.16;5055842;28;20423;-67
2021/08/24 03:34:13;;;;;;;10.60;5.75;;;;;;;13.45;97.94;103002.25;5057215;28;20065;-66
2021/08/24 03:36:40;;;;;;;13.13;6.95;;;;;;;13.38;98.15;103000.50;5051728;28;20390;-67
2021/08/24 03:39:10;;;;;;;13.15;6.55;;;;;;;13.38;98.98;103009.47;5053246;28;20060;-67
2021/08/24 03:41:37;;;;;;;12.93;6.97;;;;;;;13.37;98.13;103002.31;5055602;28;20323;-67
2021/08/24 03:44:05;;;;;;;14.70;8.18;;;;;;;13.33;98.98;103003.25;5055571;28;20061;-66
2021/08/24 03:46:33;;;;;;;18.73;9.05;;;;;;;13.29;99.98;103000.56;5057399;28;20060;-66
2021/08/24 03:49:01;;;;;;;18.25;8.43;;;;;;;13.26;99.87;103004.16;5052770;28;20076;-66
2021/08/24 03:51:28;;;;;;;16.75;8.50;;;;;;;13.21;100.00;102996.19;5056466;28;20065;-66
2021/08/24 03:53:56;;;;;;;16.00;8.55;;;;;;;13.20;100.00;103004.22;5050630;28;20059;-66
2021/08/24 03:56:25;;;;;;;20.58;10.82;;;;;;;13.18;100.00;102998.88;5056582;28;20065;-66
2021/08/24 03:58:53;;;;;;;18.02;9.68;;;;;;;13.19;100.00;103006.00;5058984;28;20432;-67
2021/08/24 04:01:21;;;;;;;18.88;10.35;;;;;;;13.19;100.00;102997.06;5052679;28;20044;-67
2021/08/24 04:03:49;;;;;;;22.05;11.45;;;;;;;13.16;100.00;103003.38;5058926;28;20772;-67
2021/08/24 04:06:17;;;;;;;22.55;12.40;;;;;;;13.15;100.00;103006.06;5050762;28;20068;-67
2021/08/24 04:08:45;;;;;;;24.08;11.35;;;;;;;13.12;100.00;103004.28;5053900;28;20146;-67
2021/08/24 04:11:14;;;;;;;21.77;11.30;;;;;;;13.06;100.00;103015.06;5052016;28;20071;-68
2021/08/24 04:13:44;;;;;;;22.98;10.90;;;;;;;13.03;100.00;103007.03;5053724;28;20301;-67
2021/08/24 04:16:13;;;;;;;20.88;11.13;;;;;;;12.94;100.00;103017.81;5054601;28;20068;-67
2021/08/24 04:18:42;;;;;;;19.15;10.27;;;;;;;12.89;100.00;103018.75;5050262;28;20160;-67
2021/08/24 04:21:13;;;;;;;21.48;10.38;;;;;;;12.88;100.00;103016.09;5056167;28;20041;-66
2021/08/24 04:23:41;;;;;;;19.58;10.70;;;;;;;12.84;100.00;103014.34;5054424;28;20064;-67
2021/08/24 04:26:09;;;;;;;19.42;9.98;;;;;;;12.84;100.00;103025.06;5056931;28;20143;-67
2021/08/24 04:28:38;;;;;;;21.50;10.48;;;;;;;12.76;100.00;103024.22;5051122;28;20069;-67
2021/08/24 04:31:12;;;;;;;18.77;10.70;;;;;;;12.78;100.00;103022.41;5051779;28;20102;-66
2021/08/24 04:33:39;;;;;;;;;;;;;;;12.75;100.00;103027.78;5057587;28;20399;-66
2021/08/24 04:36:07;;;;;;;20.38;10.88;;;;;;;12.75;100.00;103030.44;5052964;28;20296;-67
2021/08/24 04:38:36;;;;;;;18.13;10.32;;;;;;;12.76;100.00;103029.56;5052267;28;20072;-66
2021/08/24 04:41:06;;;;;;;20.83;10.15;;;;;;;12.76;100.00;103032.25;5053899;28;20056;-67
2021/08/24 04:43:34;;;;;;;25.40;12.32;;;;;;;12.76;100.00;103030.44;5050998;28;20057;-67
2021/08/24 04:46:03;;;;;;;24.48;12.75;;;;;;;12.75;100.00;103039.38;5055487;28;20140;-67
2021/08/24 04:48:32;;;;;;;24.75;12.57;;;;;;;12.76;100.00;103034.94;5050803;28;20060;-67
2021/08/24 04:51:00;;;;;;;25.13;13.73;;;;;;;12.82;100.00;103037.53;5056856;28;20061;-67
2021/08/24 04:53:29;;;;;;;24.50;13.38;;;;;;;12.85;100.00;103046.44;5052012;28;20068;-67
2021/08/24 04:55:58;;;;;;;22.42;11.48;;;;;;;12.90;100.00;103038.38;5052514;28;20061;-69
2021/08/24 04:58:26;;;;;;;25.08;13.25;;;;;;;12.99;100.00;103043.69;5054532;28;20068;-66
2021/08/24 05:00:53;;;;;;;21.67;11.30;;;;;;;13.02;100.00;103045.44;5054964;28;20060;-69
2021/08/24 05:03:21;;;;;;;24.58;13.82;;;;;;;13.05;100.00;103048.13;5052904;28;20156;-66
2021/08/24 05:05:51;;;;;;;27.80;12.85;;;;;;;13.11;100.00;103048.09;5056175;28;20443;-68
2021/08/24 05:08:19;;;;;;;25.65;11.65;;;;;;;13.13;100.00;103046.28;5052175;28;20060;-68
2021/08/24 05:10:46;;;;;;;22.90;11.95;;;;;;;13.12;100.00;103044.47;5053931;28;20060;-68
2021/08/24 05:13:14;;;;;;;23.83;12.02;;;;;;;13.12;100.00;103039.13;5053236;28;20056;-68
2021/08/24 05:15:42;;;;;;;22.25;10.98;;;;;;;13.17;100.00;103042.66;5053417;28;20072;-66
2021/08/24 05:18:10;;;;;;;20.23;11.40;;;;;;;13.19;100.00;103042.66;5054767;28;20069;-66
2021/08/24 05:20:37;;;;;;;21.58;10.80;;;;;;;13.24;100.00;103041.69;5055476;28;20379;-67
2021/08/24 05:23:07;;;;;;;21.25;11.00;;;;;;;13.28;100.00;103047.94;5052394;28;20056;-67
2021/08/24 05:25:34;;;;;;;23.45;9.88;;;;;;;13.31;100.00;103045.22;5054082;28;20064;-66
2021/08/24 05:28:03;;;;;;;22.92;11.25;;;;;;;13.37;100.00;103050.56;5053029;28;20068;-67
2021/08/24 05:30:31;;;;;;;21.27;10.98;;;;;;;13.45;100.00;103042.47;5054294;28;20119;-69
2021/08/24 05:32:59;;;;;;;21.13;10.93;;;;;;;13.54;100.00;103046.88;5055741;28;20065;-70
2021/08/24 05:35:27;;;;;;;21.17;11.48;;;;;;;13.66;100.00;103045.84;5057853;28;20803;-69
2021/08/24 05:37:56;;;;;;;21.50;10.73;;;;;;;13.75;100.00;103041.25;5054237;28;20049;-69
2021/08/24 05:40:26;;;;;;;20.58;9.95;;;;;;;13.90;100.00;103042.03;5056662;28;20061;-69
2021/08/24 05:42:53;;;;;;;21.60;10.18;;;;;;;14.04;100.00;103048.09;5060096;28;20088;-70
2021/08/24 05:45:21;;;;;;;18.35;10.27;;;;;;;14.20;100.00;103046.16;5057333;28;20063;-70
2021/08/24 05:47:49;;;;;;;17.40;9.30;;;;;;;14.38;100.00;103045.88;5057309;28;20092;-69
2021/08/24 05:50:17;;;;;;;18.98;10.27;;;;;;;14.53;100.00;103050.19;5058596;28;20064;-69
2021/08/24 05:52:45;;;;;;;16.23;9.15;;;;;;;14.70;100.00;103046.41;5058832;28;20048;-69
2021/08/24 05:55:13;;;;;;;15.80;8.63;;;;;;;14.85;100.00;103051.56;5054473;28;20067;-69
2021/08/24 05:57:42;;;;;;;15.13;8.38;;;;;;;15.02;100.00;103048.59;5052520;28;20092;-69
2021/08/24 06:00:11;;;;;;;16.73;7.97;;;;;;;15.15;100.00;103053.78;5060002;28;20442;-70
2021/08/24 06:02:39;;;;;;;17.52;8.50;;;;;;;15.22;100.00;103059.06;5058157;28;20067;-70
2021/08/24 06:05:09;;;;;;;17.35;8.82;;;;;;;15.37;99.51;103049.81;5057605;28;20064;-70
2021/08/24 06:07:37;;;;;;;18.00;8.57;;;;;;;15.50;98.58;103047.81;5057722;28;20110;-69
2021/08/24 06:10:06;;;;;;;16.55;8.70;;;;;;;15.66;97.77;103064.56;5056832;28;20445;-69
2021/08/24 06:12:34;;;;;;;14.52;8.55;;;;;;;15.77;97.87;103062.59;5058430;28;20421;-69
2021/08/24 06:15:03;;;;;;;16.45;8.95;;;;;;;15.88;97.19;103062.38;5054724;28;20121;-70
2021/08/24 06:17:31;;;;;;;16.08;8.20;;;;;;;16.14;96.15;103067.28;5056207;28;20163;-70
2021/08/24 06:19:59;;;;;;;14.15;8.60;;;;;;;16.33;95.41;103069.56;5051507;28;20380;-69
2021/08/24 06:22:27;;;;;;;16.70;9.93;;;;;;;16.53;94.63;103064.66;5059037;28;20098;-69
2021/08/24 06:24:54;;;;;;;16.23;8.40;;;;;;;16.59;94.45;103055.56;5056518;28;20069;-69
2021/08/24 06:27:25;;;;;;;16.58;8.20;;;;;;;16.70;92.92;103060.69;5056185;28;20064;-71
2021/08/24 06:29:53;;;;;;;14.07;7.72;;;;;;;16.89;92.42;103053.09;5061009;28;20098;-71
2021/08/24 06:32:30;;;;;;;15.60;7.25;;;;;;;16.92;92.11;103058.41;5054497;28;20392;-71
2021/08/24 06:34:58;;;;;;;16.08;7.63;;;;;;;17.13;91.92;103063.31;5059145;28;20501;-70
2021/08/24 06:37:27;;;;;;;14.25;7.72;;;;;;;17.29;90.22;103057.53;5056034;28;20068;-69
2021/08/24 06:39:54;;;;;;;13.15;6.75;;;;;;;17.45;90.00;103071.50;5058258;28;20351;-71
2021/08/24 06:42:22;;;;;;;14.55;6.90;;;;;;;17.63;89.76;103062.94;5059454;28;20083;-71
2021/08/24 06:44:50;;;;;;;13.25;7.00;;;;;;;17.73;88.68;103068.97;5052796;28;20162;-71
2021/08/24 06:47:18;;;;;;;14.43;6.47;;;;;;;17.74;87.86;103068.03;5053517;28;20845;-71
2021/08/24 06:49:47;;;;;;;15.35;6.72;;;;;;;17.82;87.03;103066.00;5049846;28;20506;-71
2021/08/24 06:52:15;;;;;;;14.15;6.80;;;;;;;18.07;86.29;103068.94;5054733;28;20068;-70
2021/08/24 06:54:42;;;;;;;12.68;6.38;;;;;;;18.06;85.84;103064.47;5057606;28;20339;-70
2021/08/24 06:57:11;;;;;;;13.00;5.90;;;;;;;18.18;85.92;103068.63;5058838;28;20061;-71
2021/08/24 06:59:39;;;;;;;11.98;5.78;;;;;;;18.32;85.00;103067.34;5059977;28;20060;-73
2021/08/24 07:02:08;;;;;;;10.02;6.13;;;;;;;18.26;83.97;103066.59;5052871;28;20245;-73
2021/08/24 07:04:36;;;;;;;15.70;6.25;;;;;;;18.18;84.37;103068.63;5054835;28;20486;-72
2021/08/24 07:07:05;;;;;;;11.40;6.00;;;;;;;18.34;83.84;103070.88;5055953;28;20744;-71
2021/08/24 07:09:33;;;;;;;11.48;5.20;;;;;;;18.19;83.02;103075.81;5055412;28;20096;-71
2021/08/24 07:12:01;;;;;;;12.70;5.32;;;;;;;18.35;83.17;103076.25;5054922;28;20065;-70
2021/08/24 07:14:29;;;;;;;9.63;5.03;;;;;;;18.68;82.82;103081.59;5050076;28;20090;-68
2021/08/24 07:16:56;;;;;;;11.23;4.85;;;;;;;18.80;82.27;103083.03;5057766;28;20135;-68
2021/08/24 07:19:24;;;;;;;11.50;4.97;;;;;;;18.73;80.61;103078.72;5057825;28;20376;-70
2021/08/24 07:21:52;;;;;;;12.70;5.57;;;;;;;18.73;80.44;103079.63;5056135;28;20124;-69
2021/08/24 07:24:21;;;;;;;10.20;5.30;;;;;;;18.81;80.20;103073.97;5056396;28;20048;-71
2021/08/24 07:26:49;;;;;;;12.45;5.57;;;;;;;18.93;79.34;103072.72;5052020;28;20068;-68
2021/08/24 07:29:17;;;;;;;11.18;5.38;;;;;;;19.02;78.72;103070.63;5054386;28;20114;-68
2021/08/24 07:31:45;;;;;;;11.25;5.70;;;;;;;18.85;79.31;103062.16;5052347;28;20250;-69
2021/08/24 07:34:14;;;;;;;9.25;4.68;;;;;;;19.15;78.05;103075.63;5054963;28;20332;-69
2021/08/24 07:36:42;;;;;;;11.05;4.65;;;;;;;19.27;77.30;103074.34;5056273;28;20068;-69
2021/08/24 07:39:10;;;;;;;9.15;4.93;;;;;;;19.01;78.32;103076.94;5053935;28;20130;-69
2021/08/24 07:41:39;;;;;;;11.68;5.28;;;;;;;19.48;76.77;103070.91;5059341;28;20066;-69
2021/08/24 07:44:07;;;;;;;9.20;4.90;;;;;;;19.62;76.64;103067.72;5050517;28;20060;-69
2021/08/24 07:46:35;;;;;;;11.50;4.90;;;;;;;19.48;76.46;103078.13;5055975;28;20060;-68
2021/08/24 07:49:03;;;;;;;9.98;4.47;;;;;;;19.96;75.10;103072.84;5054144;28;20463;-69
2021/08/24 07:51:31;;;;;;;9.23;4.43;;;;;;;19.68;74.45;103080.13;5052741;28;20060;-68
2021/08/24 07:54:00;;;;;;;10.48;4.80;;;;;;;19.64;74.31;103073.06;5055296;28;20509;-67
2021/08/24 07:56:28;;;;;;;9.02;4.20;;;;;;;19.53;74.30;103074.34;5056240;28;20060;-67
2021/08/24 07:58:57;;;;;;;8.85;4.20;;;;;;;19.47;74.18;103070.97;5056484;28;20065;-68
2021/08/24 08:01:24;;;;;;;9.02;4.07;;;;;;;19.76;73.58;103069.97;5051057;28;20307;-67
2021/08/24 08:03:52;;;;;;;8.43;3.65;;;;;;;19.59;73.97;103074.09;5054235;28;20065;-67
2021/08/24 08:06:20;;;;;;;8.93;4.18;;;;;;;20.21;73.15;103087.28;5052212;28;20078;-67
2021/08/24 08:08:48;;;;;;;10.50;4.57;;;;;;;19.88;72.91;103079.47;5052230;28;20073;-67
2021/08/24 08:11:16;;;;;;;8.10;3.90;;;;;;;20.37;71.60;103083.06;5055623;28;20122;-68
2021/08/24 08:13:44;;;;;;;10.15;4.15;;;;;;;20.74;70.22;103081.69;5054595;28;20087;-67
2021/08/24 08:16:13;;;;;;;11.48;4.30;;;;;;;20.96;68.26;103081.72;5056269;28;20117;-67
2021/08/24 08:18:41;;;;;;;8.90;4.07;;;;;;;21.18;67.86;103072.66;5052541;28;20071;-69
2021/08/24 08:21:08;;;;;;;7.13;3.55;;;;;;;21.37;66.88;103078.22;5056190;28;20103;-68
2021/08/24 08:23:36;;;;;;;8.68;3.58;;;;;;;21.36;67.13;103076.44;5053600;28;20087;-68
2021/08/24 08:26:04;;;;;;;7.47;3.88;;;;;;;21.66;66.33;103076.09;5054640;28;20330;-68
2021/08/24 08:28:32;;;;;;;8.35;3.78;;;;;;;21.88;65.39;103082.38;5054598;28;20358;-68
2021/08/24 08:31:01;;;;;;;9.40;4.05;;;;;;;21.96;64.54;103073.84;5054559;28;20139;-68
2021/08/24 08:33:32;;;;;;;6.57;3.33;;;;;;;21.87;64.33;103071.56;5055775;28;20073;-68
2021/08/24 08:36:00;;;;;;;10.57;3.75;;;;;;;21.47;65.56;103076.91;5048343;28;20131;-68
2021/08/24 08:38:28;;;;;;;10.20;3.72;;;;;;;21.40;65.79;103072.63;5052021;28;20060;-68
2021/08/24 08:41:02;;;;;;;8.07;3.60;;;;;;;21.20;64.86;103077.09;5053666;28;20064;-68
2021/08/24 08:43:41;;;;;;;9.10;3.80;;;;;;;21.66;64.19;103073.38;5053487;28;20036;-68
2021/08/24 08:46:21;;;;;;;8.07;3.63;;;;;;;20.44;66.83;103079.19;5055028;28;20331;-68
2021/08/24 08:49:02;;;;;;;7.28;4.10;;;;;;;20.95;65.91;103074.50;5050339;28;20088;-68
2021/08/24 08:52:00;;;;;;;8.27;3.63;;;;;;;21.14;64.63;103062.88;5052151;28;20075;-68
2021/08/24 08:54:41;;;;;;;9.98;3.55;;;;;;;21.53;64.30;103065.75;5048876;28;20068;-68
2021/08/24 08:57:13;;;;;;;6.30;3.50;;;;;;;21.63;63.13;103069.84;5050028;28;20068;-68
2021/08/24 08:59:47;;;;;;;7.68;3.38;;;;;;;21.13;63.41;103069.25;5051308;28;20408;-68
2021/08/24 09:02:23;;;;;;;8.70;3.42;;;;;;;21.32;62.64;103074.78;5051069;28;20114;-68
2021/08/24 09:04:53;;;;;;;7.45;3.35;;;;;;;21.74;62.34;103073.91;5050943;28;20363;-68
2021/08/24 09:07:26;;;;;;;7.65;3.38;;;;;;;21.80;60.49;103081.81;5048044;28;20596;-68
2021/08/24 09:09:55;;;;;;;8.23;3.45;;;;;;;21.70;60.56;103083.16;5053027;28;20064;-68
2021/08/24 09:12:26;;;;;;;8.82;4.28;;;;;;;21.51;62.19;103077.66;5047698;28;20443;-68
2021/08/24 09:14:59;;;;;;;8.50;3.58;;;;;;;21.61;61.44;103082.63;5054593;28;20067;-68
2021/08/24 09:17:31;;;;;;;8.15;3.58;;;;;;;21.72;60.62;103079.41;5051335;28;20068;-68
2021/08/24 09:20:09;;;;;;;7.25;3.35;;;;;;;21.58;61.71;103076.44;5053908;28;20431;-68
2021/08/24 09:22:38;;;;;;;7.82;3.10;;;;;;;21.54;60.74;103072.97;5057216;28;20068;-68
2021/08/24 09:25:08;;;;;;;6.82;3.40;;;;;;;21.91;59.91;103082.19;5051066;28;20109;-69
2021/08/24 09:27:45;;;;;;;8.52;3.55;;;;;;;21.96;59.16;103085.63;5056394;28;20342;-68
2021/08/24 09:30:15;;;;;;;10.40;3.22;;;;;;;22.09;57.62;103083.22;5052929;28;20398;-67
2021/08/24 09:32:42;;;;;;;7.13;3.17;;;;;;;21.61;58.17;103084.47;5057609;28;20346;-65
2021/08/24 09:35:27;;;;;;;7.25;3.28;;;;;;;21.57;58.91;103082.81;5056055;28;20071;-65
2021/08/24 09:37:58;;;;;;;6.85;2.92;;;;;;;21.89;58.85;103075.09;5052044;28;20102;-67
2021/08/24 09:40:39;;;;;;;8.00;3.42;;;;;;;22.14;59.56;103077.56;5053605;28;20053;-65
2021/08/24 09:43:23;;;;;;;8.30;3.35;;;;;;;22.33;57.75;103077.63;5049952;28;20082;-66
2021/08/24 09:45:55;;;;;;;;;;;;;;;22.41;56.96;103067.28;5053386;28;20451;-67
2021/08/24 09:48:23;;;;;;;6.55;3.10;;;;;;;22.85;55.84;103077.88;5051668;28;20021;-67
2021/08/24 09:50:53;;;;;;;7.13;3.10;;;;;;;22.84;55.57;103083.38;5054610;28;20454;-66
2021/08/24 09:53:31;;;;;;;9.48;3.05;;;;;;;22.34;54.10;103077.56;5053106;28;20060;-67
2021/08/24 09:56:01;;;;;;;8.45;2.97;;;;;;;22.24;55.63;103078.03;5053794;28;20064;-65
2021/08/24 09:58:33;;;;;;;6.50;2.95;;;;;;;22.36;56.57;103080.22;5054661;28;20149;-66
2021/08/24 10:01:03;;;;;;;10.07;3.35;;;;;;;22.60;56.32;103075.44;5054032;28;20066;-66
2021/08/24 10:03:36;;;;;;;6.80;3.30;;;;;;;22.97;55.39;103070.03;5051504;28;20049;-65
2021/08/24 10:06:16;;;;;;;6.17;3.20;;;;;;;23.38;55.22;103061.66;5053173;28;20064;-65
2021/08/24 10:08:45;;;;;;;7.43;2.75;;;;;;;23.04;52.10;103063.34;5053069;28;20147;-67
2021/08/24 10:11:15;;;;;;;5.28;2.42;;;;;;;23.32;52.45;103068.31;5053371;28;20056;-67
2021/08/24 10:13:46;;;;;;;6.78;2.90;;;;;;;23.22;52.62;103070.59;5051945;28;20086;-66
2021/08/24 10:16:25;;;;;;;9.18;2.88;;;;;;;23.67;53.80;103062.88;5054416;28;20133;-66
2021/08/24 10:19:06;;;;;;;5.68;3.10;;;;;;;24.20;52.43;103053.66;5054832;28;20073;-67
2021/08/24 10:21:38;;;;;;;9.30;3.38;;;;;;;24.35;51.81;103048.34;5057187;28;20041;-67
2021/08/24 10:24:13;;;;;;;6.35;2.88;;;;;;;23.86;52.18;103058.22;5056364;28;20069;-67
2021/08/24 10:26:42;;;;;;;5.50;2.80;;;;;;;23.69;52.82;103055.50;5057114;28;20060;-68
2021/08/24 10:29:12;;;;;;;8.60;3.05;;;;;;;23.71;53.51;103052.69;5059678;28;20130;-66
2021/08/24 10:31:50;;;;;;;5.97;3.03;;;;;;;24.33;51.65;103050.25;5056800;28;20069;-66
2021/08/24 10:34:28;;;;;;;6.90;3.33;;;;;;;24.32;51.05;103054.84;5055864;28;20321;-66
2021/08/24 10:37:14;;;;;;;4.65;2.22;;;;;;;24.39;50.61;103039.88;5056846;28;20142;-67
2021/08/24 10:39:43;;;;;;;7.97;3.45;;;;;;;24.15;49.65;103052.16;5056085;28;20169;-67
2021/08/24 10:42:20;;;;;;;13.20;3.13;;;;;;;24.32;48.44;103032.13;5058943;28;20068;-66
2021/08/24 10:44:50;;;;;;;6.93;3.00;;;;;;;24.31;48.90;103042.16;5057598;28;20071;-67
2021/08/24 10:47:25;;;;;;;7.22;3.10;;;;;;;24.50;47.70;103042.03;5054879;28;20065;-68
2021/08/24 10:49:55;;;;;;;4.97;2.70;;;;;;;24.02;49.11;103043.75;5052684;28;20053;-66
2021/08/24 10:52:41;;;;;;;6.55;3.00;;;;;;;23.94;49.78;103041.47;5053924;28;20106;-66
2021/08/24 10:55:12;;;;;;;6.82;3.17;;;;;;;23.73;49.76;103040.72;5054008;28;20060;-66
2021/08/24 10:57:58;;;;;;;7.85;3.30;;;;;;;24.48;49.95;103040.34;5056583;28;20067;-66
2021/08/24 11:00:56;;;;;;;6.35;2.78;;;;;;;24.86;48.89;103034.53;5054790;28;20444;-67
2021/08/24 11:04:02;;;;;;;7.22;3.05;;;;;;;25.14;48.43;103026.47;5054763;28;20594;-67
2021/08/24 11:06:41;;;;;;;6.47;2.60;;;;;;;24.59;47.02;103040.66;5055999;28;20060;-67
2021/08/24 11:09:23;;;;;;;6.63;3.13;;;;;;;24.16;48.86;103034.81;5053988;28;20060;-67
2021/08/24 11:12:03;;;;;;;6.03;2.80;;;;;;;25.09;48.57;103027.72;5055924;28;20064;-67
2021/08/24 11:14:40;;;;;;;7.78;2.90;;;;;;;24.53;48.79;103030.03;5055585;28;20075;-67
2021/08/24 11:17:20;;;;;;;8.68;3.10;;;;;;;24.16;48.21;103032.09;5054728;28;20138;-67
2021/08/24 11:20:00;;;;;;;5.47;2.88;;;;;;;23.80;48.82;103025.84;5056309;28;20103;-67
2021/08/24 11:22:36;;;;;;;7.70;3.13;;;;;;;23.68;49.91;103027.38;5054495;28;20195;-67
2021/08/24 11:25:17;;;;;;;6.63;3.05;;;;;;;23.10;50.89;103031.28;5054861;28;20083;-67
2021/08/24 11:27:51;;;;;;;5.45;3.08;;;;;;;22.90;53.02;103034.97;5056003;28;20110;-67
2021/08/24 11:30:23;;;;;;;7.03;3.28;;;;;;;22.93;52.70;103025.75;5053595;28;20092;-67
2021/08/24 11:32:57;;;;;;;8.10;3.15;;;;;;;23.50;51.48;103012.88;5054435;28;20117;-67
2021/08/24 11:35:35;;;;;;;8.55;3.22;;;;;;;22.98;49.57;103025.53;5056301;28;20092;-67
2021/08/24 11:38:08;;;;;;;8.13;3.20;;;;;;;22.89;50.20;103032.31;5052535;28;20083;-67